DON PEDRO RESERVOIR (DNP)

Elevation: 830' · TUOLUMNE R basin · Operator: Turlock Irrigation District


Station comments:

11/04/2014Hourly storage has resumed as of 11/4/2014. It had previously stopped at 11/25/2009.


Provisional data, subject to change.
Query executed Sunday at 8:14:41   clock

Select a sensor type for a plot of data.
Note: Reservoir Flows are daily averages.

Earlier

Date RES ELE    STORAGE    RES CHG    TOC STO    ABV TOC    OUTFLOW    INFLOW    PPT INC   
 FEET   AF   AF   AF   AF   CFS   CFS   INCHES  
01/31/2015 703.72 826912 1332 1690000 -863088 197 868 0.00
02/01/2015 703.85 828246 1000 1690000 -861754 171 843 0.00
02/02/2015 703.96 828914 0 1690000 -861086 165 502 0.00
02/03/2015 704.08 829582 334 1690000 -860418 173 510 0.00
02/04/2015 704.23 830250 334 1690000 -859750 173 510 0.00
02/05/2015 704.33 830918 1002 1690000 -859082 173 510 0.00
02/06/2015 704.56 832926 1674 1690000 -857074 172 1184 0.00
02/07/2015 704.97 835609 2011 1690000 -854391 173 1526 0.00
02/08/2015 705.69 840318 5378 1690000 -849682 e 215 2589 0.00
02/09/2015 707.01 849111 8793 1690000 -840889 172 4606 0.00
02/10/2015 707.54 852509 3398 1690000 -837491 173 1886 0.00
02/11/2015 707.87 855235 2385 1690000 -834765 173 1548 0.00
02/12/2015 708.13 856600 1365 1690000 -833400 173 862 0.00
02/13/2015 708.13 858650 2050 1690000 -- 173 1207 0.00
02/14/2015 708.56 860019 342 1690000 -- 173 863 0.00
02/15/2015 708.77 861389 1712 1690000 -- 173 864 0.00
02/16/2015 708.91 862075 1028 1690000 -827925 173 519 0.00
02/17/2015 709.11 863447 1029 1690000 -826553 173 864 0.00
02/18/2015 709.25 864821 687 1690000 -825179 270 963 0.00
02/19/2015 709.39 865509 0 1690000 -824491 174 521 0.00
02/20/2015 709.52 866197 344 1690000 -- 174 521 0.00
02/21/2015 709.66 867574 1721 1690000 -- 173 868 0.00
02/22/2015 709.75 868263 0 1690000 -- 294 642 0.00
02/23/2015 709.79 868263 0 1690000 -821737 319 319 0.00
02/24/2015 709.93 868952 689 1690000 -821048 207 555 0.00
02/25/2015 710.10 870332 1064 1690000 -819668 173 869 0.00
02/26/2015 710.21 871023 346 1690000 -818977 172 520 0.00
02/27/2015 710.20 871023 0 -- -- -- -- --
02/28/2015 710.30 871714 691 -- -- -- -- --
03/01/2015 -- -- -- -- -- -- -- --

Later | Latest

Warning! This data is preliminary and subject to revision.

Show DNP Map | Plot DNP Data | 1 Month DNP Data | Real-Time DNP Data | DNP Info